sensor_id;sensor_type;location;lat;lon;timestamp;pressure;altitude;pressure_sealevel;temperature;humidity
73245;BME280;61460;41.158;-73.238;2023-04-08T00:02:24;102625.58;;;26.03;37.80
73245;BME280;61460;41.158;-73.238;2023-04-08T00:04:55;102635.15;;;26.03;37.86
73245;BME280;61460;41.158;-73.238;2023-04-08T00:07:25;102622.64;;;26.05;37.92
73245;BME280;61460;41.158;-73.238;2023-04-08T00:09:56;102634.53;;;26.04;38.01
73245;BME280;61460;41.158;-73.238;2023-04-08T00:12:26;102645.31;;;26.03;38.08
73245;BME280;61460;41.158;-73.238;2023-04-08T00:14:57;102643.63;;;26.02;38.22
73245;BME280;61460;41.158;-73.238;2023-04-08T00:17:27;102650.24;;;26.01;38.32
73245;BME280;61460;41.158;-73.238;2023-04-08T00:19:58;102653.30;;;26.04;38.34
73245;BME280;61460;41.158;-73.238;2023-04-08T00:22:29;102652.87;;;25.96;38.45
73245;BME280;61460;41.158;-73.238;2023-04-08T00:24:59;102654.71;;;25.91;38.61
73245;BME280;61460;41.158;-73.238;2023-04-08T00:27:30;102662.74;;;25.97;38.54
73245;BME280;61460;41.158;-73.238;2023-04-08T00:30:01;102670.04;;;25.76;38.80
73245;BME280;61460;41.158;-73.238;2023-04-08T00:32:31;102676.63;;;25.62;37.63
73245;BME280;61460;41.158;-73.238;2023-04-08T00:35:02;102686.45;;;25.70;36.79
73245;BME280;61460;41.158;-73.238;2023-04-08T00:37:32;102697.85;;;25.69;37.43
73245;BME280;61460;41.158;-73.238;2023-04-08T00:40:03;102705.60;;;25.70;37.27
73245;BME280;61460;41.158;-73.238;2023-04-08T00:42:33;102694.65;;;25.72;37.01
73245;BME280;61460;41.158;-73.238;2023-04-08T00:45:05;102702.12;;;25.71;36.54
73245;BME280;61460;41.158;-73.238;2023-04-08T00:47:35;102699.15;;;25.67;36.72
73245;BME280;61460;41.158;-73.238;2023-04-08T00:50:07;102690.18;;;25.63;36.07
73245;BME280;61460;41.158;-73.238;2023-04-08T00:52:36;102700.19;;;25.56;35.76
73245;BME280;61460;41.158;-73.238;2023-04-08T00:55:07;102700.03;;;25.55;36.25
73245;BME280;61460;41.158;-73.238;2023-04-08T00:57:37;102688.62;;;25.52;35.31
73245;BME280;61460;41.158;-73.238;2023-04-08T01:00:09;102699.19;;;25.53;35.55
73245;BME280;61460;41.158;-73.238;2023-04-08T01:02:44;102701.88;;;25.08;35.98
73245;BME280;61460;41.158;-73.238;2023-04-08T01:05:13;102701.25;;;25.44;34.22
73245;BME280;61460;41.158;-73.238;2023-04-08T01:07:43;102706.27;;;25.40;34.23
73245;BME280;61460;41.158;-73.238;2023-04-08T01:10:14;102722.39;;;25.54;34.38
73245;BME280;61460;41.158;-73.238;2023-04-08T01:12:54;102725.46;;;25.58;34.58
73245;BME280;61460;41.158;-73.238;2023-04-08T01:15:11;102743.10;;;25.54;34.47
73245;BME280;61460;41.158;-73.238;2023-04-08T01:17:42;102751.48;;;25.49;34.59
73245;BME280;61460;41.158;-73.238;2023-04-08T01:20:14;102750.06;;;25.37;33.78
73245;BME280;61460;41.158;-73.238;2023-04-08T01:22:53;102754.95;;;25.28;34.93
73245;BME280;61460;41.158;-73.238;2023-04-08T01:25:17;102756.65;;;25.11;36.51
73245;BME280;61460;41.158;-73.238;2023-04-08T01:27:44;102748.70;;;25.09;36.23
73245;BME280;61460;41.158;-73.238;2023-04-08T01:30:18;102746.82;;;24.93;36.34
73245;BME280;61460;41.158;-73.238;2023-04-08T01:32:46;102751.55;;;24.88;36.46
73245;BME280;61460;41.158;-73.238;2023-04-08T01:35:17;102759.10;;;24.89;36.39
73245;BME280;61460;41.158;-73.238;2023-04-08T01:37:49;102772.37;;;24.93;36.62
73245;BME280;61460;41.158;-73.238;2023-04-08T01:40:18;102771.50;;;24.81;36.41
73245;BME280;61460;41.158;-73.238;2023-04-08T01:42:50;102772.04;;;24.86;36.42
73245;BME280;61460;41.158;-73.238;2023-04-08T01:45:20;102787.05;;;25.02;35.50
73245;BME280;61460;41.158;-73.238;2023-04-08T01:47:51;102791.13;;;24.87;34.64
73245;BME280;61460;41.158;-73.238;2023-04-08T01:50:21;102796.29;;;24.78;33.91
73245;BME280;61460;41.158;-73.238;2023-04-08T01:52:52;102792.90;;;24.66;32.98
73245;BME280;61460;41.158;-73.238;2023-04-08T01:55:22;102795.32;;;24.68;32.73
73245;BME280;61460;41.158;-73.238;2023-04-08T01:57:53;102795.02;;;24.75;31.88
73245;BME280;61460;41.158;-73.238;2023-04-08T02:00:28;102805.41;;;24.78;31.31
73245;BME280;61460;41.158;-73.238;2023-04-08T02:02:53;102795.11;;;24.74;32.99
73245;BME280;61460;41.158;-73.238;2023-04-08T02:05:24;102802.20;;;24.57;31.67
73245;BME280;61460;41.158;-73.238;2023-04-08T02:07:54;102810.22;;;24.57;31.86
73245;BME280;61460;41.158;-73.238;2023-04-08T02:10:25;102800.91;;;24.62;32.00
73245;BME280;61460;41.158;-73.238;2023-04-08T02:12:56;102799.89;;;24.59;31.29
73245;BME280;61460;41.158;-73.238;2023-04-08T02:15:28;102799.33;;;24.52;31.15
73245;BME280;61460;41.158;-73.238;2023-04-08T02:18:02;102802.84;;;24.55;30.01
73245;BME280;61460;41.158;-73.238;2023-04-08T02:20:34;102820.55;;;24.47;30.93
73245;BME280;61460;41.158;-73.238;2023-04-08T02:23:02;102809.82;;;24.35;30.20
73245;BME280;61460;41.158;-73.238;2023-04-08T02:25:30;102819.21;;;24.36;30.33
73245;BME280;61460;41.158;-73.238;2023-04-08T02:28:02;102813.23;;;24.33;30.49
73245;BME280;61460;41.158;-73.238;2023-04-08T02:30:34;102809.72;;;23.71;34.04
73245;BME280;61460;41.158;-73.238;2023-04-08T02:33:03;102810.36;;;24.07;33.25
73245;BME280;61460;41.158;-73.238;2023-04-08T02:35:32;102821.22;;;24.09;29.65
73245;BME280;61460;41.158;-73.238;2023-04-08T02:38:02;102827.15;;;24.06;30.45
73245;BME280;61460;41.158;-73.238;2023-04-08T02:40:34;102832.73;;;24.16;30.17
73245;BME280;61460;41.158;-73.238;2023-04-08T02:43:03;102834.34;;;24.23;29.83
73245;BME280;61460;41.158;-73.238;2023-04-08T02:45:38;102838.36;;;24.19;29.89
73245;BME280;61460;41.158;-73.238;2023-04-08T02:48:05;102837.15;;;24.02;30.68
73245;BME280;61460;41.158;-73.238;2023-04-08T02:50:36;102847.61;;;24.14;31.21
73245;BME280;61460;41.158;-73.238;2023-04-08T02:53:07;102838.88;;;23.99;31.99
73245;BME280;61460;41.158;-73.238;2023-04-08T02:55:37;102842.80;;;23.92;32.44
73245;BME280;61460;41.158;-73.238;2023-04-08T02:58:07;102838.74;;;23.98;32.69
73245;BME280;61460;41.158;-73.238;2023-04-08T03:00:38;102843.09;;;24.06;32.89
73245;BME280;61460;41.158;-73.238;2023-04-08T03:03:09;102851.14;;;23.98;33.06
73245;BME280;61460;41.158;-73.238;2023-04-08T03:05:39;102841.85;;;23.99;33.04
73245;BME280;61460;41.158;-73.238;2023-04-08T03:08:10;102843.65;;;24.07;32.71
73245;BME280;61460;41.158;-73.238;2023-04-08T03:10:41;102843.11;;;23.97;33.39
73245;BME280;61460;41.158;-73.238;2023-04-08T03:13:11;102839.64;;;24.16;33.60
73245;BME280;61460;41.158;-73.238;2023-04-08T03:15:42;102839.54;;;24.20;33.32
73245;BME280;61460;41.158;-73.238;2023-04-08T03:18:13;102851.11;;;24.14;33.26
73245;BME280;61460;41.158;-73.238;2023-04-08T03:20:43;102858.89;;;24.04;33.72
73245;BME280;61460;41.158;-73.238;2023-04-08T03:23:14;102848.77;;;23.94;33.89
73245;BME280;61460;41.158;-73.238;2023-04-08T03:25:44;102840.49;;;24.03;33.78
73245;BME280;61460;41.158;-73.238;2023-04-08T03:28:15;102845.06;;;23.90;34.26
73245;BME280;61460;41.158;-73.238;2023-04-08T03:30:47;102856.61;;;23.89;34.54
73245;BME280;61460;41.158;-73.238;2023-04-08T03:33:16;102858.42;;;23.95;34.59
73245;BME280;61460;41.158;-73.238;2023-04-08T03:35:47;102869.93;;;23.98;34.45
73245;BME280;61460;41.158;-73.238;2023-04-08T03:38:18;102874.81;;;23.85;34.67
73245;BME280;61460;41.158;-73.238;2023-04-08T03:40:48;102883.39;;;23.96;32.43
73245;BME280;61460;41.158;-73.238;2023-04-08T03:43:19;102874.59;;;23.89;33.67
73245;BME280;61460;41.158;-73.238;2023-04-08T03:45:50;102878.02;;;23.76;34.31
73245;BME280;61460;41.158;-73.238;2023-04-08T03:48:20;102886.08;;;23.71;34.45
73245;BME280;61460;41.158;-73.238;2023-04-08T03:50:51;102883.96;;;23.81;34.33
73245;BME280;61460;41.158;-73.238;2023-04-08T03:53:22;102889.42;;;23.82;34.48
73245;BME280;61460;41.158;-73.238;2023-04-08T03:55:52;102882.35;;;23.82;34.42
73245;BME280;61460;41.158;-73.238;2023-04-08T03:58:23;102884.19;;;23.77;34.74
73245;BME280;61460;41.158;-73.238;2023-04-08T04:00:53;102889.21;;;23.75;34.57
73245;BME280;61460;41.158;-73.238;2023-04-08T04:03:24;102879.53;;;23.76;34.96
73245;BME280;61460;41.158;-73.238;2023-04-08T04:05:55;102884.76;;;23.71;35.06
73245;BME280;61460;41.158;-73.238;2023-04-08T04:08:25;102891.78;;;23.57;35.63
73245;BME280;61460;41.158;-73.238;2023-04-08T04:10:57;102904.11;;;23.65;34.24
73245;BME280;61460;41.158;-73.238;2023-04-08T04:13:27;102908.11;;;23.59;34.56
73245;BME280;61460;41.158;-73.238;2023-04-08T04:15:57;102912.85;;;23.66;34.78
73245;BME280;61460;41.158;-73.238;2023-04-08T04:18:28;102910.60;;;23.62;34.92
73245;BME280;61460;41.158;-73.238;2023-04-08T04:20:59;102910.21;;;23.68;34.95
73245;BME280;61460;41.158;-73.238;2023-04-08T04:23:29;102905.99;;;23.61;35.20
73245;BME280;61460;41.158;-73.238;2023-04-08T04:26:00;102908.46;;;23.55;35.53
73245;BME280;61460;41.158;-73.238;2023-04-08T04:28:30;102915.32;;;23.56;35.37
73245;BME280;61460;41.158;-73.238;2023-04-08T04:31:01;102920.82;;;23.58;34.82
73245;BME280;61460;41.158;-73.238;2023-04-08T04:33:32;102926.55;;;23.61;33.56
73245;BME280;61460;41.158;-73.238;2023-04-08T04:36:02;102924.04;;;23.49;34.93
73245;BME280;61460;41.158;-73.238;2023-04-08T04:38:33;102925.35;;;23.54;34.60
73245;BME280;61460;41.158;-73.238;2023-04-08T04:41:04;102927.02;;;23.52;35.01
73245;BME280;61460;41.158;-73.238;2023-04-08T04:43:34;102931.20;;;23.53;34.76
73245;BME280;61460;41.158;-73.238;2023-04-08T04:46:05;102931.74;;;23.47;35.00
73245;BME280;61460;41.158;-73.238;2023-04-08T04:48:36;102931.82;;;23.54;34.89
73245;BME280;61460;41.158;-73.238;2023-04-08T04:51:06;102937.46;;;23.59;35.19
73245;BME280;61460;41.158;-73.238;2023-04-08T04:53:37;102937.98;;;23.52;35.29
73245;BME280;61460;41.158;-73.238;2023-04-08T04:56:07;102943.82;;;23.44;35.36
73245;BME280;61460;41.158;-73.238;2023-04-08T04:58:38;102946.16;;;23.58;35.14
73245;BME280;61460;41.158;-73.238;2023-04-08T05:01:09;102940.93;;;23.46;34.68
73245;BME280;61460;41.158;-73.238;2023-04-08T05:03:39;102940.14;;;23.14;36.93
73245;BME280;61460;41.158;-73.238;2023-04-08T05:06:10;102943.13;;;23.43;34.79
73245;BME280;61460;41.158;-73.238;2023-04-08T05:08:41;102945.27;;;23.40;35.20
73245;BME280;61460;41.158;-73.238;2023-04-08T05:11:11;102943.94;;;23.42;35.09
73245;BME280;61460;41.158;-73.238;2023-04-08T05:13:42;102951.67;;;23.53;35.29
73245;BME280;61460;41.158;-73.238;2023-04-08T05:16:13;102960.72;;;23.42;35.48
73245;BME280;61460;41.158;-73.238;2023-04-08T05:18:43;102954.85;;;23.46;36.07
73245;BME280;61460;41.158;-73.238;2023-04-08T05:21:14;102953.27;;;23.47;35.63
73245;BME280;61460;41.158;-73.238;2023-04-08T05:23:45;102967.58;;;23.39;36.40
73245;BME280;61460;41.158;-73.238;2023-04-08T05:26:15;102955.40;;;23.41;35.45
73245;BME280;61460;41.158;-73.238;2023-04-08T05:28:46;102962.23;;;23.53;35.66
73245;BME280;61460;41.158;-73.238;2023-04-08T05:31:17;102971.16;;;23.46;35.29
73245;BME280;61460;41.158;-73.238;2023-04-08T05:33:47;102979.71;;;23.38;36.16
73245;BME280;61460;41.158;-73.238;2023-04-08T05:36:18;102975.15;;;23.43;35.96
73245;BME280;61460;41.158;-73.238;2023-04-08T05:38:48;102971.58;;;23.54;35.91
73245;BME280;61460;41.158;-73.238;2023-04-08T05:41:19;102987.08;;;23.55;36.15
73245;BME280;61460;41.158;-73.238;2023-04-08T05:43:50;102987.92;;;23.48;36.11
73245;BME280;61460;41.158;-73.238;2023-04-08T05:46:20;102993.45;;;23.38;36.56
73245;BME280;61460;41.158;-73.238;2023-04-08T05:48:51;102995.85;;;23.47;36.11
73245;BME280;61460;41.158;-73.238;2023-04-08T05:51:22;102994.55;;;23.47;35.39
73245;BME280;61460;41.158;-73.238;2023-04-08T05:53:52;102990.63;;;23.46;35.72
73245;BME280;61460;41.158;-73.238;2023-04-08T05:56:23;102992.36;;;23.36;35.06
73245;BME280;61460;41.158;-73.238;2023-04-08T05:58:54;102998.61;;;23.40;35.26
73245;BME280;61460;41.158;-73.238;2023-04-08T06:01:24;102994.66;;;23.34;35.62
73245;BME280;61460;41.158;-73.238;2023-04-08T06:03:55;102989.15;;;23.39;35.69
73245;BME280;61460;41.158;-73.238;2023-04-08T06:06:26;102991.42;;;23.39;35.67
73245;BME280;61460;41.158;-73.238;2023-04-08T06:08:56;102988.18;;;23.36;35.63
73245;BME280;61460;41.158;-73.238;2023-04-08T06:11:27;102978.23;;;23.42;35.79
73245;BME280;61460;41.158;-73.238;2023-04-08T06:13:58;102976.48;;;23.54;35.78
73245;BME280;61460;41.158;-73.238;2023-04-08T06:16:28;102976.85;;;23.46;35.87
73245;BME280;61460;41.158;-73.238;2023-04-08T06:18:59;102986.23;;;23.37;34.88
73245;BME280;61460;41.158;-73.238;2023-04-08T06:21:30;102983.86;;;23.22;36.29
73245;BME280;61460;41.158;-73.238;2023-04-08T06:24:00;102977.37;;;23.40;34.08
73245;BME280;61460;41.158;-73.238;2023-04-08T06:26:31;102974.93;;;23.43;34.67
73245;BME280;61460;41.158;-73.238;2023-04-08T06:29:01;102967.88;;;23.56;34.52
73245;BME280;61460;41.158;-73.238;2023-04-08T06:31:32;102962.64;;;23.47;34.93
73245;BME280;61460;41.158;-73.238;2023-04-08T06:34:03;102953.14;;;23.38;35.47
73245;BME280;61460;41.158;-73.238;2023-04-08T06:36:33;102964.16;;;23.56;35.31
73245;BME280;61460;41.158;-73.238;2023-04-08T06:39:04;102960.63;;;23.65;35.33
73245;BME280;61460;41.158;-73.238;2023-04-08T06:41:35;102964.40;;;23.52;35.18
73245;BME280;61460;41.158;-73.238;2023-04-08T06:44:05;102963.04;;;23.42;34.71
73245;BME280;61460;41.158;-73.238;2023-04-08T06:46:36;102967.16;;;23.34;33.92
73245;BME280;61460;41.158;-73.238;2023-04-08T06:49:07;102970.90;;;23.33;34.59
73245;BME280;61460;41.158;-73.238;2023-04-08T06:51:37;102971.04;;;23.37;34.39
73245;BME280;61460;41.158;-73.238;2023-04-08T06:54:08;102969.70;;;23.37;34.65
73245;BME280;61460;41.158;-73.238;2023-04-08T06:56:39;102975.49;;;23.52;34.80
73245;BME280;61460;41.158;-73.238;2023-04-08T06:59:09;102983.60;;;23.40;35.14
73245;BME280;61460;41.158;-73.238;2023-04-08T07:01:40;102987.97;;;23.40;35.35
73245;BME280;61460;41.158;-73.238;2023-04-08T07:04:10;102988.80;;;23.36;35.66
73245;BME280;61460;41.158;-73.238;2023-04-08T07:06:41;102983.42;;;23.26;34.51
73245;BME280;61460;41.158;-73.238;2023-04-08T07:09:12;102982.00;;;23.25;33.49
73245;BME280;61460;41.158;-73.238;2023-04-08T07:11:42;102978.02;;;23.19;33.96
73245;BME280;61460;41.158;-73.238;2023-04-08T07:14:13;102984.71;;;23.11;34.28
73245;BME280;61460;41.158;-73.238;2023-04-08T07:16:44;102981.93;;;23.03;35.28
73245;BME280;61460;41.158;-73.238;2023-04-08T07:19:14;102977.40;;;23.19;34.95
73245;BME280;61460;41.158;-73.238;2023-04-08T07:21:45;102981.26;;;23.16;34.74
73245;BME280;61460;41.158;-73.238;2023-04-08T07:24:15;102974.78;;;23.06;35.29
73245;BME280;61460;41.158;-73.238;2023-04-08T07:26:46;102979.15;;;23.16;35.18
73245;BME280;61460;41.158;-73.238;2023-04-08T07:29:17;102978.03;;;23.08;34.65
73245;BME280;61460;41.158;-73.238;2023-04-08T07:31:47;102969.30;;;23.06;33.84
73245;BME280;61460;41.158;-73.238;2023-04-08T07:34:18;102987.73;;;23.01;34.54
73245;BME280;61460;41.158;-73.238;2023-04-08T07:36:49;102983.35;;;23.01;34.70
73245;BME280;61460;41.158;-73.238;2023-04-08T07:39:19;102980.36;;;23.15;34.56
73245;BME280;61460;41.158;-73.238;2023-04-08T07:41:50;102981.18;;;22.98;34.91
73245;BME280;61460;41.158;-73.238;2023-04-08T07:44:21;102992.15;;;23.01;35.02
73245;BME280;61460;41.158;-73.238;2023-04-08T07:46:51;103001.01;;;23.09;34.68
73245;BME280;61460;41.158;-73.238;2023-04-08T07:49:22;102995.89;;;22.95;34.55
73245;BME280;61460;41.158;-73.238;2023-04-08T07:51:52;103003.36;;;23.02;33.49
73245;BME280;61460;41.158;-73.238;2023-04-08T07:54:23;103013.17;;;23.05;33.99
73245;BME280;61460;41.158;-73.238;2023-04-08T07:56:54;103006.17;;;22.97;33.90
73245;BME280;61460;41.158;-73.238;2023-04-08T07:59:25;103003.62;;;22.96;33.93
73245;BME280;61460;41.158;-73.238;2023-04-08T08:01:55;103003.81;;;23.04;34.23
73245;BME280;61460;41.158;-73.238;2023-04-08T08:04:26;103009.72;;;23.07;34.21
73245;BME280;61460;41.158;-73.238;2023-04-08T08:06:56;103011.05;;;23.00;34.85
73245;BME280;61460;41.158;-73.238;2023-04-08T08:09:27;103007.76;;;23.04;34.71
73245;BME280;61460;41.158;-73.238;2023-04-08T08:11:58;103010.40;;;22.98;34.11
73245;BME280;61460;41.158;-73.238;2023-04-08T08:14:28;103011.16;;;22.91;33.64
73245;BME280;61460;41.158;-73.238;2023-04-08T08:16:59;103031.24;;;22.81;33.85
73245;BME280;61460;41.158;-73.238;2023-04-08T08:19:30;103030.32;;;22.82;33.98
73245;BME280;61460;41.158;-73.238;2023-04-08T08:22:00;103028.56;;;22.83;34.03
73245;BME280;61460;41.158;-73.238;2023-04-08T08:24:31;103019.90;;;22.81;34.07
73245;BME280;61460;41.158;-73.238;2023-04-08T08:27:02;103023.81;;;22.86;34.12
73245;BME280;61460;41.158;-73.238;2023-04-08T08:29:32;103032.55;;;22.89;34.55
73245;BME280;61460;41.158;-73.238;2023-04-08T08:32:03;103030.39;;;22.83;34.15
73245;BME280;61460;41.158;-73.238;2023-04-08T08:34:33;103038.60;;;22.90;34.29
73245;BME280;61460;41.158;-73.238;2023-04-08T08:37:04;103045.38;;;22.88;35.61
73245;BME280;61460;41.158;-73.238;2023-04-08T08:39:35;103046.18;;;22.89;33.52
73245;BME280;61460;41.158;-73.238;2023-04-08T08:42:05;103050.19;;;22.75;34.24
73245;BME280;61460;41.158;-73.238;2023-04-08T08:44:36;103066.67;;;22.87;34.42
73245;BME280;61460;41.158;-73.238;2023-04-08T08:47:07;103068.71;;;22.72;34.73
73245;BME280;61460;41.158;-73.238;2023-04-08T08:49:37;103066.31;;;22.88;34.59
73245;BME280;61460;41.158;-73.238;2023-04-08T08:52:08;103065.42;;;22.90;34.32
73245;BME280;61460;41.158;-73.238;2023-04-08T08:54:39;103067.43;;;22.78;33.39
73245;BME280;61460;41.158;-73.238;2023-04-08T08:57:17;103078.24;;;22.74;33.83
73245;BME280;61460;41.158;-73.238;2023-04-08T08:59:40;103086.03;;;22.85;34.44
73245;BME280;61460;41.158;-73.238;2023-04-08T09:04:49;103099.76;;;22.61;35.21
73245;BME280;61460;41.158;-73.238;2023-04-08T09:07:12;103098.55;;;22.75;35.10
73245;BME280;61460;41.158;-73.238;2023-04-08T09:09:47;103098.40;;;22.74;34.48
73245;BME280;61460;41.158;-73.238;2023-04-08T09:12:13;103101.03;;;22.74;33.70
73245;BME280;61460;41.158;-73.238;2023-04-08T09:14:44;103106.62;;;22.67;34.41
73245;BME280;61460;41.158;-73.238;2023-04-08T09:17:15;103116.15;;;22.57;34.97
73245;BME280;61460;41.158;-73.238;2023-04-08T09:22:16;103127.79;;;22.68;34.34
73245;BME280;61460;41.158;-73.238;2023-04-08T09:24:46;103130.42;;;22.68;34.32
73245;BME280;61460;41.158;-73.238;2023-04-08T09:29:48;103139.45;;;22.67;35.00
73245;BME280;61460;41.158;-73.238;2023-04-08T09:32:18;103144.08;;;22.47;34.14
73245;BME280;61460;41.158;-73.238;2023-04-08T09:34:49;103146.42;;;22.59;33.59
73245;BME280;61460;41.158;-73.238;2023-04-08T09:37:20;103153.49;;;22.60;33.45
73245;BME280;61460;41.158;-73.238;2023-04-08T09:39:50;103165.73;;;22.58;33.54
73245;BME280;61460;41.158;-73.238;2023-04-08T09:42:21;103165.86;;;22.56;33.76
73245;BME280;61460;41.158;-73.238;2023-04-08T09:44:52;103153.98;;;22.47;33.87
73245;BME280;61460;41.158;-73.238;2023-04-08T09:47:25;103159.94;;;22.43;35.17
73245;BME280;61460;41.158;-73.238;2023-04-08T09:49:56;103173.40;;;22.51;33.47
73245;BME280;61460;41.158;-73.238;2023-04-08T09:52:29;103178.92;;;22.50;33.04
73245;BME280;61460;41.158;-73.238;2023-04-08T09:54:58;103179.07;;;22.50;33.13
73245;BME280;61460;41.158;-73.238;2023-04-08T09:57:35;103176.60;;;22.58;33.19
73245;BME280;61460;41.158;-73.238;2023-04-08T10:00:02;103163.40;;;22.65;33.81
73245;BME280;61460;41.158;-73.238;2023-04-08T10:02:29;103174.42;;;22.53;33.73
73245;BME280;61460;41.158;-73.238;2023-04-08T10:04:58;103175.27;;;22.58;32.66
73245;BME280;61460;41.158;-73.238;2023-04-08T10:07:28;103178.95;;;22.42;33.39
73245;BME280;61460;41.158;-73.238;2023-04-08T10:09:58;103186.25;;;22.57;33.39
73245;BME280;61460;41.158;-73.238;2023-04-08T10:12:29;103181.50;;;22.48;33.89
73245;BME280;61460;41.158;-73.238;2023-04-08T10:17:30;103199.48;;;22.40;34.79
73245;BME280;61460;41.158;-73.238;2023-04-08T10:20:02;103194.98;;;22.40;33.98
73245;BME280;61460;41.158;-73.238;2023-04-08T10:27:38;103212.06;;;22.37;33.72
73245;BME280;61460;41.158;-73.238;2023-04-08T10:32:39;103216.27;;;22.37;33.24
73245;BME280;61460;41.158;-73.238;2023-04-08T10:35:05;103211.87;;;22.41;33.02
73245;BME280;61460;41.158;-73.238;2023-04-08T10:37:36;103214.57;;;22.40;32.81
73245;BME280;61460;41.158;-73.238;2023-04-08T10:40:07;103216.89;;;22.37;33.51
73245;BME280;61460;41.158;-73.238;2023-04-08T10:42:38;103217.23;;;22.45;33.14
73245;BME280;61460;41.158;-73.238;2023-04-08T10:45:08;103223.10;;;22.61;32.82
73245;BME280;61460;41.158;-73.238;2023-04-08T10:47:38;103231.58;;;22.63;32.84
73245;BME280;61460;41.158;-73.238;2023-04-08T10:50:13;103237.44;;;22.49;33.55
73245;BME280;61460;41.158;-73.238;2023-04-08T10:52:46;103244.98;;;22.32;33.78
73245;BME280;61460;41.158;-73.238;2023-04-08T10:55:10;103249.17;;;22.40;32.94
73245;BME280;61460;41.158;-73.238;2023-04-08T10:57:41;103239.83;;;22.43;33.47
73245;BME280;61460;41.158;-73.238;2023-04-08T11:00:17;103249.63;;;22.40;33.67
73245;BME280;61460;41.158;-73.238;2023-04-08T11:02:42;103257.11;;;22.33;33.93
73245;BME280;61460;41.158;-73.238;2023-04-08T11:05:13;103264.39;;;22.37;34.35
73245;BME280;61460;41.158;-73.238;2023-04-08T11:07:43;103265.93;;;22.35;34.15
73245;BME280;61460;41.158;-73.238;2023-04-08T11:10:14;103269.06;;;22.32;33.54
73245;BME280;61460;41.158;-73.238;2023-04-08T11:12:45;103278.31;;;22.17;35.37
73245;BME280;61460;41.158;-73.238;2023-04-08T11:15:16;103283.54;;;22.32;33.31
73245;BME280;61460;41.158;-73.238;2023-04-08T11:17:46;103288.91;;;22.61;33.27
73245;BME280;61460;41.158;-73.238;2023-04-08T11:20:17;103290.84;;;22.63;33.68
73245;BME280;61460;41.158;-73.238;2023-04-08T11:22:48;103303.91;;;22.56;33.59
73245;BME280;61460;41.158;-73.238;2023-04-08T11:25:18;103290.18;;;22.60;34.20
73245;BME280;61460;41.158;-73.238;2023-04-08T11:27:48;103302.93;;;22.68;34.35
73245;BME280;61460;41.158;-73.238;2023-04-08T11:30:19;103305.74;;;22.69;34.71
73245;BME280;61460;41.158;-73.238;2023-04-08T11:32:50;103297.12;;;22.59;33.31
73245;BME280;61460;41.158;-73.238;2023-04-08T11:35:20;103302.73;;;22.53;34.05
73245;BME280;61460;41.158;-73.238;2023-04-08T11:37:51;103304.36;;;22.61;34.04
73245;BME280;61460;41.158;-73.238;2023-04-08T11:40:22;103304.86;;;22.75;33.51
73245;BME280;61460;41.158;-73.238;2023-04-08T11:42:53;103299.24;;;22.78;33.17
73245;BME280;61460;41.158;-73.238;2023-04-08T11:45:24;103307.73;;;22.69;33.34
73245;BME280;61460;41.158;-73.238;2023-04-08T11:47:54;103316.37;;;22.78;33.29
73245;BME280;61460;41.158;-73.238;2023-04-08T11:50:25;103319.75;;;22.64;33.58
73245;BME280;61460;41.158;-73.238;2023-04-08T11:52:55;103323.49;;;22.82;33.45
73245;BME280;61460;41.158;-73.238;2023-04-08T11:55:27;103315.08;;;22.66;33.69
73245;BME280;61460;41.158;-73.238;2023-04-08T11:58:01;103331.20;;;22.63;34.77
73245;BME280;61460;41.158;-73.238;2023-04-08T12:00:27;103331.15;;;22.70;33.29
73245;BME280;61460;41.158;-73.238;2023-04-08T12:02:58;103336.06;;;22.67;33.54
73245;BME280;61460;41.158;-73.238;2023-04-08T12:05:28;103330.86;;;22.77;33.61
73245;BME280;61460;41.158;-73.238;2023-04-08T12:07:59;103327.79;;;22.65;33.84
73245;BME280;61460;41.158;-73.238;2023-04-08T12:10:30;103331.41;;;22.67;33.82
73245;BME280;61460;41.158;-73.238;2023-04-08T12:13:00;103330.89;;;22.66;33.67
73245;BME280;61460;41.158;-73.238;2023-04-08T12:15:31;103324.32;;;22.67;33.78
73245;BME280;61460;41.158;-73.238;2023-04-08T12:18:02;103314.13;;;22.60;33.95
73245;BME280;61460;41.158;-73.238;2023-04-08T12:20:32;103317.95;;;22.68;34.13
73245;BME280;61460;41.158;-73.238;2023-04-08T12:23:03;103317.88;;;22.78;33.44
73245;BME280;61460;41.158;-73.238;2023-04-08T12:25:34;103320.99;;;22.72;33.51
73245;BME280;61460;41.158;-73.238;2023-04-08T12:28:04;103310.26;;;22.83;33.35
73245;BME280;61460;41.158;-73.238;2023-04-08T12:30:35;103316.30;;;22.70;33.43
73245;BME280;61460;41.158;-73.238;2023-04-08T12:33:05;103323.10;;;22.62;34.11
73245;BME280;61460;41.158;-73.238;2023-04-08T12:35:36;103328.06;;;22.82;33.86
73245;BME280;61460;41.158;-73.238;2023-04-08T12:38:07;103329.57;;;22.82;33.68
73245;BME280;61460;41.158;-73.238;2023-04-08T12:40:37;103327.68;;;22.77;34.01
73245;BME280;61460;41.158;-73.238;2023-04-08T12:43:08;103342.90;;;22.82;33.98
73245;BME280;61460;41.158;-73.238;2023-04-08T12:45:39;103339.48;;;22.92;33.98
73245;BME280;61460;41.158;-73.238;2023-04-08T12:48:09;103338.13;;;22.74;34.21
73245;BME280;61460;41.158;-73.238;2023-04-08T12:50:40;103335.80;;;22.75;34.02
73245;BME280;61460;41.158;-73.238;2023-04-08T12:53:11;103333.13;;;22.75;34.38
73245;BME280;61460;41.158;-73.238;2023-04-08T12:55:41;103334.51;;;22.93;33.93
73245;BME280;61460;41.158;-73.238;2023-04-08T12:58:12;103331.77;;;23.01;33.65
73245;BME280;61460;41.158;-73.238;2023-04-08T13:00:43;103324.07;;;22.78;34.15
73245;BME280;61460;41.158;-73.238;2023-04-08T13:03:13;103323.36;;;22.98;34.06
73245;BME280;61460;41.158;-73.238;2023-04-08T13:05:44;103326.59;;;23.04;33.68